Terminal Aerodrome Forecast
Issued by NWS

Home | Current Version | Previous Version | Text Only | Print | Product List | Glossary On
Versions: 1 2 3 4 5 6 7 8 9 10 11 12 13 14 15 16 17 18 19 20 21 22 23 24 25 26 27 28 29 30 31 32 33 34 35 36 37
000
FTUS41 KOKX 270240 AAA
TAFTEB
TAF AMD
KTEB 270240Z 2703/2806 VRB03KT P6SM SCT120 BKN200
     FM271100 10005KT P6SM SCT035 SCT080 BKN120
     FM271300 09006KT 3SM SHRA BR SCT010 BKN030
     FM271600 09008KT 3SM SHRA BR BKN009
     FM271900 06004KT 2SM -DZ BR BKN006
     FM272300 VRB05KT 2SM BR BKN007=

USA.gov is the U.S. government's official web portal to all federal, state and local government web resources and services.